Terminal Aerodrome Forecast
Issued by NWS

Home | Current Version | Previous Version | Text Only | Print | Product List | Glossary On
Versions: 1 2 3 4 5 6 7 8 9 10 11 12 13 14 15 16 17 18 19 20 21 22 23 24 25
000
FTUS41 KBTV 220200 AAA
TAFPBG
TAF AMD
KPBG 220206Z 2202/2224 18005KT P6SM VCSH OVC040
      TEMPO 2202/2206 5SM -RA BR OVC025
     FM221400 15006KT P6SM BKN030=

USA.gov is the U.S. government's official web portal to all federal, state and local government web resources and services.